Terminal Aerodrome Forecast
Issued by NWS Upton, NY

Home | Current Version | Previous Version | Text Only | Print | Product List | Glossary On
Versions: 1 2 3 4 5 6 7 8 9 10 11 12 13 14 15 16 17 18 19 20 21 22 23 24 25 26 27 28 29 30 31 32 33 34 35 36 37
509
FTUS41 KOKX 241200 RRA
TAFBDR
TAF
KBDR 241200Z 2412/2512 26005KT 6SM BR FEW150 SCT200
     FM241400 29006KT P6SM FEW150 SCT200
     FM241600 30006KT P6SM FEW020 OVC080
     FM242000 VRB04KT P6SM FEW020 OVC070
     FM242200 02005KT 5SM -RA OVC050
     FM250400 05005KT 5SM -RA BKN025
     FM250700 07010KT 5SM -RA OVC025
     FM250800 08012G22KT 5SM RA OVC015
     FM251100 08017G27KT 5SM RA BR OVC010=

USA.gov is the U.S. government's official web portal to all federal, state and local government web resources and services.